Xunwu, China
Current Conditions -  °F | °C
As of 2:00 PM on Sunday 23 Nov 2014 (Local Time) from ZGOW Reporting Station
Few Clouds Few Clouds  
Wind Chill: 27°   Ceiling: Unl
Heat Index: 28°   Visibility: 6mi
Dew Point: 17°   Wind: 7mph
Humidity: 54%   Direction: 120°ESE
Pressure: 30"   Gusts: NA
Location:  24.95°N, 115.65°E
Report Text: ZGOW 230600Z 12003MPS 050V170 9999 FEW050 27/17 Q1016 NOSIG
Loading
Personal Weather Stations






























Interactive Weather Map New forecast layout! Learn more

10-Day Weather Forecast

Advertisements
Track Severe Weather on mobile